Time;durP1;ratioP1;P1;durP2;ratioP2;P2;SDS_P1;SDS_P2;PMS_P1;PMS_P2;Temp;Humidity;BMP_temperature;BMP_pressure;BME280_temperature;BME280_humidity;BME280_pressure;Samples;Min_cycle;Max_cycle;Signal;HPM_P1;HPM_P2
2023/05/22 00:00:17;;;;;;;14.93;11.20;;;14.70;99.90;;;;;;5129707;27;20320;-69
2023/05/22 00:02:43;;;;;;;15.20;11.23;;;14.70;99.90;;;;;;5129499;27;20193;-69
2023/05/22 00:05:13;;;;;;;14.10;11.40;;;14.80;99.90;;;;;;5129574;27;20426;-69
2023/05/22 00:07:40;;;;;;;17.00;11.10;;;14.80;99.90;;;;;;5129473;27;20358;-68
2023/05/22 00:10:06;;;;;;;13.43;10.60;;;14.80;99.90;;;;;;5110723;27;20437;-69
2023/05/22 00:12:32;;;;;;;13.43;10.70;;;14.70;99.90;;;;;;5129572;27;20415;-69
2023/05/22 00:14:57;;;;;;;15.10;11.60;;;14.50;99.90;;;;;;5129500;27;20675;-69
2023/05/22 00:17:25;;;;;;;12.87;11.53;;;14.30;99.90;;;;;;5129356;27;20590;-68
2023/05/22 00:19:52;;;;;;;17.70;12.03;;;14.10;99.90;;;;;;5110926;28;20658;-68
2023/05/22 00:22:18;;;;;;;15.80;12.13;;;14.10;99.90;;;;;;5129415;27;20517;-69
2023/05/22 00:24:44;;;;;;;17.70;11.43;;;14.10;99.90;;;;;;5129131;28;20427;-68
2023/05/22 00:27:10;;;;;;;14.30;11.57;;;14.10;99.90;;;;;;5110694;28;20439;-68
2023/05/22 00:29:36;;;;;;;13.50;11.30;;;14.30;99.90;;;;;;5129316;27;20189;-68
2023/05/22 00:32:01;;;;;;;19.13;12.40;;;14.30;99.90;;;;;;5129427;28;20317;-68
2023/05/22 00:34:27;;;;;;;14.10;10.70;;;14.30;99.90;;;;;;5129329;27;20592;-68
2023/05/22 00:36:52;;;;;;;12.00;10.70;;;14.40;99.90;;;;;;5129103;27;20214;-68
2023/05/22 00:39:18;;;;;;;12.70;10.30;;;14.40;99.90;;;;;;5129213;28;20189;-70
2023/05/22 00:41:43;;;;;;;15.10;11.60;;;14.40;99.90;;;;;;5110503;28;20205;-68
2023/05/22 00:44:10;;;;;;;15.40;10.53;;;14.30;99.90;;;;;;5110616;28;20186;-68
2023/05/22 00:46:36;;;;;;;15.20;12.47;;;14.20;99.90;;;;;;5129029;27;20295;-68
2023/05/22 00:49:03;;;;;;;13.03;11.00;;;14.20;99.90;;;;;;5131508;27;20460;-68
2023/05/22 00:51:28;;;;;;;16.33;10.83;;;14.20;99.90;;;;;;5133408;27;20747;-68
2023/05/22 00:53:54;;;;;;;22.80;11.80;;;14.30;99.90;;;;;;5133151;27;20418;-68
2023/05/22 00:56:20;;;;;;;12.40;10.83;;;14.30;99.90;;;;;;5132978;27;20213;-68
2023/05/22 00:58:47;;;;;;;14.03;11.40;;;14.30;99.90;;;;;;5133036;27;20410;-68
2023/05/22 01:01:14;;;;;;;14.40;11.50;;;14.30;99.90;;;;;;5133172;27;20979;-68
2023/05/22 01:03:44;;;;;;;13.40;10.70;;;14.30;99.90;;;;;;5133208;27;20437;-68
2023/05/22 01:06:14;;;;;;;11.93;10.63;;;14.30;99.90;;;;;;5132951;27;20455;-68
2023/05/22 01:08:40;;;;;;;14.93;11.17;;;14.20;99.90;;;;;;5132898;27;20955;-68
2023/05/22 01:11:15;;;;;;;13.83;11.10;;;14.20;99.90;;;;;;5132885;27;20422;-68
2023/05/22 01:13:56;;;;;;;18.00;11.10;;;14.10;99.90;;;;;;5132845;27;20410;-67
2023/05/22 01:16:48;;;;;;;13.03;11.20;;;14.10;99.90;;;;;;5132712;27;20851;-67
2023/05/22 01:19:42;;;;;;;14.17;11.53;;;14.20;99.90;;;;;;5122208;27;20422;-67
2023/05/22 01:22:20;;;;;;;11.63;10.43;;;14.30;99.90;;;;;;5132803;27;20407;-69
2023/05/22 01:24:57;;;;;;;12.63;10.43;;;14.30;99.90;;;;;;5132443;27;20410;-68
2023/05/22 01:27:49;;;;;;;13.23;10.73;;;14.20;99.90;;;;;;5132428;27;20438;-68
2023/05/22 01:30:38;;;;;;;15.63;10.40;;;14.20;99.90;;;;;;5132345;27;20815;-68
2023/05/22 01:33:06;;;;;;;14.07;11.03;;;14.10;99.90;;;;;;5132501;27;20811;-68
2023/05/22 01:35:33;;;;;;;11.37;9.90;;;14.10;99.90;;;;;;5132274;27;20501;-68
2023/05/22 01:38:00;;;;;;;14.47;11.20;;;14.00;99.90;;;;;;5132305;27;20592;-68
2023/05/22 01:40:27;;;;;;;13.67;10.20;;;14.00;99.90;;;;;;5132364;27;20417;-68
2023/05/22 01:42:52;;;;;;;14.50;11.63;;;13.90;99.90;;;;;;5132174;27;20438;-69
2023/05/22 01:45:20;;;;;;;13.47;11.70;;;13.90;99.90;;;;;;5132281;27;20914;-69
2023/05/22 01:47:46;;;;;;;14.00;11.67;;;13.80;99.90;;;;;;5113797;27;20232;-69
2023/05/22 01:50:12;;;;;;;14.20;12.00;;;13.70;99.90;;;;;;5132285;27;20511;-69
2023/05/22 01:52:51;;;;;;;14.30;11.70;;;13.70;99.90;;;;;;5132011;27;20200;-69
2023/05/22 01:55:29;;;;;;;14.57;12.07;;;13.80;99.90;;;;;;5113423;27;20556;-68
2023/05/22 01:58:24;;;;;;;14.47;11.07;;;13.70;99.90;;;;;;5132117;27;20486;-69
2023/05/22 02:00:53;;;;;;;14.17;11.33;;;13.70;99.90;;;;;;5130754;27;20410;-68
2023/05/22 02:03:25;;;;;;;13.10;11.30;;;13.70;99.90;;;;;;5132195;27;20438;-68
2023/05/22 02:05:53;;;;;;;14.53;10.80;;;13.70;99.90;;;;;;5131971;27;20411;-68
2023/05/22 02:08:20;;;;;;;15.00;11.73;;;13.60;99.90;;;;;;5132206;27;20446;-68
2023/05/22 02:10:48;;;;;;;12.97;11.00;;;13.60;99.90;;;;;;5132131;27;20434;-68
2023/05/22 02:13:14;;;;;;;13.60;11.20;;;13.50;99.90;;;;;;5113432;27;20427;-68
2023/05/22 02:15:43;;;;;;;15.20;12.27;;;13.40;99.90;;;;;;5131664;27;20411;-68
2023/05/22 02:18:12;;;;;;;16.10;12.90;;;13.40;99.90;;;;;;5132050;27;20415;-68
2023/05/22 02:20:38;;;;;;;14.87;12.43;;;13.30;99.90;;;;;;5131737;27;20796;-67
2023/05/22 02:23:04;;;;;;;17.97;13.47;;;13.20;99.90;;;;;;5131553;27;20422;-68
2023/05/22 02:25:29;;;;;;;15.57;13.00;;;13.30;99.90;;;;;;5131467;27;20181;-67
2023/05/22 02:27:55;;;;;;;16.43;12.37;;;13.30;99.90;;;;;;5131347;27;20641;-68
2023/05/22 02:30:20;;;;;;;16.30;12.60;;;13.30;99.90;;;;;;5113070;27;20181;-68
2023/05/22 02:32:46;;;;;;;16.80;12.67;;;13.20;99.90;;;;;;5131344;27;20185;-68
2023/05/22 02:35:11;;;;;;;18.10;13.90;;;13.20;99.90;;;;;;5131510;27;20181;-68
2023/05/22 02:37:37;;;;;;;18.50;14.30;;;13.10;99.90;;;;;;5131188;27;20634;-67
2023/05/22 02:40:06;;;;;;;20.07;12.93;;;13.10;99.90;;;;;;5131311;27;20252;-68
2023/05/22 02:42:32;;;;;;;14.67;12.20;;;13.10;99.90;;;;;;5131270;27;20216;-68
2023/05/22 02:44:58;;;;;;;15.03;12.90;;;13.10;99.90;;;;;;5131058;27;20457;-68
2023/05/22 02:47:23;;;;;;;14.77;12.97;;;13.10;99.90;;;;;;5131223;27;20650;-68
2023/05/22 02:49:49;;;;;;;15.80;13.23;;;13.20;99.90;;;;;;5131230;27;20238;-68
2023/05/22 02:52:15;;;;;;;14.27;12.73;;;13.20;99.90;;;;;;5131215;27;20267;-68
2023/05/22 02:54:40;;;;;;;18.20;13.10;;;13.20;99.90;;;;;;5131064;27;20339;-68
2023/05/22 02:57:06;;;;;;;17.80;12.63;;;13.30;99.90;;;;;;5131091;27;20228;-68
2023/05/22 02:59:32;;;;;;;16.47;12.70;;;13.40;99.90;;;;;;5131125;27;20651;-68
2023/05/22 03:01:57;;;;;;;16.63;12.40;;;13.50;99.90;;;;;;5131346;27;20202;-68
2023/05/22 03:04:23;;;;;;;14.60;12.30;;;13.60;99.90;;;;;;5131148;27;20669;-68
2023/05/22 03:06:49;;;;;;;16.13;12.27;;;13.50;99.90;;;;;;5131192;27;20341;-68
2023/05/22 03:09:15;;;;;;;17.80;12.70;;;13.50;99.90;;;;;;5131294;27;20189;-68
2023/05/22 03:11:41;;;;;;;14.00;12.10;;;13.50;99.90;;;;;;5131008;27;20177;-68
2023/05/22 03:14:06;;;;;;;14.57;11.53;;;13.50;99.90;;;;;;5131309;27;20440;-68
2023/05/22 03:16:33;;;;;;;18.60;14.03;;;13.40;99.90;;;;;;5131173;27;20556;-68
2023/05/22 03:19:09;;;;;;;16.93;13.13;;;13.40;99.90;;;;;;5113143;27;20188;-68
2023/05/22 03:21:35;;;;;;;19.93;12.87;;;13.50;99.90;;;;;;5131477;27;20424;-68
2023/05/22 03:24:01;;;;;;;15.63;12.33;;;13.50;99.90;;;;;;5131343;27;20414;-68
2023/05/22 03:26:29;;;;;;;18.10;13.23;;;13.50;99.90;;;;;;5131065;27;20810;-68
2023/05/22 03:28:55;;;;;;;15.10;12.93;;;13.60;99.90;;;;;;5113128;27;20188;-68
2023/05/22 03:31:23;;;;;;;17.03;12.30;;;13.60;99.90;;;;;;5131044;27;20517;-68
2023/05/22 03:33:48;;;;;;;15.23;12.00;;;13.60;99.90;;;;;;5112598;27;20423;-68
2023/05/22 03:36:14;;;;;;;15.23;11.93;;;13.70;99.90;;;;;;5112102;27;21007;-68
2023/05/22 03:38:40;;;;;;;13.27;11.80;;;13.80;99.90;;;;;;5130404;27;20185;-68
2023/05/22 03:41:06;;;;;;;14.07;12.57;;;13.70;99.90;;;;;;5130483;27;20415;-68
2023/05/22 03:43:32;;;;;;;19.37;13.70;;;13.70;99.90;;;;;;5111851;27;20189;-68
2023/05/22 03:45:58;;;;;;;13.97;11.50;;;13.70;99.90;;;;;;5130392;27;20430;-68
2023/05/22 03:48:24;;;;;;;16.57;12.77;;;13.90;99.90;;;;;;5130428;27;20823;-68
2023/05/22 03:50:49;;;;;;;14.50;13.00;;;14.00;99.90;;;;;;5130340;27;20181;-69
2023/05/22 03:53:15;;;;;;;14.87;13.27;;;13.80;99.90;;;;;;5130394;27;20657;-69
2023/05/22 03:55:41;;;;;;;16.73;13.80;;;13.70;99.90;;;;;;5130053;27;20181;-68
2023/05/22 03:58:07;;;;;;;21.00;14.27;;;13.60;99.90;;;;;;5130106;27;20497;-67
2023/05/22 04:00:33;;;;;;;16.37;12.87;;;13.60;99.90;;;;;;5130162;27;20181;-68
2023/05/22 04:02:59;;;;;;;17.90;13.87;;;13.50;99.90;;;;;;5111921;27;20181;-69
2023/05/22 04:05:25;;;;;;;17.03;12.87;;;13.50;99.90;;;;;;5130180;27;20484;-69
2023/05/22 04:07:50;;;;;;;17.80;13.20;;;13.60;99.90;;;;;;5130099;27;20239;-69
2023/05/22 04:10:16;;;;;;;15.93;13.60;;;13.50;99.90;;;;;;5130230;27;20272;-69
2023/05/22 04:12:41;;;;;;;16.40;13.33;;;13.60;99.90;;;;;;5129293;27;20262;-69
2023/05/22 04:15:08;;;;;;;18.30;13.57;;;13.70;99.90;;;;;;5110551;27;20541;-69
2023/05/22 04:17:42;;;;;;;17.00;13.57;;;13.70;99.90;;;;;;5110659;28;20205;-67
2023/05/22 04:20:10;;;;;;;15.70;12.90;;;13.70;99.90;;;;;;5129311;27;20419;-68
2023/05/22 04:22:35;;;;;;;16.83;13.57;;;13.70;99.90;;;;;;5129001;27;20410;-68
2023/05/22 04:25:01;;;;;;;16.57;13.10;;;13.70;99.90;;;;;;5129339;28;20933;-68
2023/05/22 04:27:28;;;;;;;15.77;12.27;;;13.80;99.90;;;;;;5129159;27;20205;-67
2023/05/22 04:29:54;;;;;;;16.37;13.20;;;13.80;99.90;;;;;;5129213;28;20613;-68
2023/05/22 04:32:22;;;;;;;17.27;13.97;;;13.90;99.90;;;;;;5129385;28;20510;-69
2023/05/22 04:34:51;;;;;;;18.30;12.30;;;13.90;99.90;;;;;;5111252;28;20399;-69
2023/05/22 04:37:19;;;;;;;14.90;12.90;;;14.00;99.90;;;;;;5129150;27;20477;-68
2023/05/22 04:39:44;;;;;;;20.33;13.30;;;14.10;99.90;;;;;;5129076;28;20565;-68
2023/05/22 04:42:13;;;;;;;16.87;13.73;;;14.20;99.90;;;;;;5128789;28;21329;-68
2023/05/22 04:44:39;;;;;;;20.07;13.37;;;14.20;99.90;;;;;;5129339;28;20804;-69
2023/05/22 04:47:06;;;;;;;22.00;12.43;;;14.20;99.90;;;;;;5129178;27;20530;-68
2023/05/22 04:49:32;;;;;;;16.90;13.50;;;14.30;99.90;;;;;;5110327;28;20430;-68
2023/05/22 04:51:58;;;;;;;22.30;12.50;;;14.40;99.90;;;;;;5128985;28;20512;-68
2023/05/22 04:54:23;;;;;;;14.37;12.70;;;14.50;99.90;;;;;;5128620;28;20926;-68
2023/05/22 04:56:50;;;;;;;16.90;13.20;;;14.60;99.90;;;;;;5128553;27;20219;-69
2023/05/22 04:59:18;;;;;;;17.10;13.37;;;14.70;99.90;;;;;;5128655;28;20537;-68
2023/05/22 05:01:46;;;;;;;15.60;12.27;;;14.70;99.90;;;;;;5110073;28;20461;-68
2023/05/22 05:04:12;;;;;;;14.87;12.80;;;14.80;99.90;;;;;;5128301;28;20422;-68
2023/05/22 05:06:38;;;;;;;16.67;13.77;;;14.90;99.90;;;;;;5128143;27;20437;-68
2023/05/22 05:09:04;;;;;;;19.60;13.70;;;15.00;99.90;;;;;;5127954;27;20181;-68
2023/05/22 05:11:29;;;;;;;14.97;12.60;;;15.10;99.90;;;;;;5109590;28;20274;-69
2023/05/22 05:13:55;;;;;;;22.17;12.33;;;15.20;99.90;;;;;;5127738;28;20458;-68
2023/05/22 05:16:23;;;;;;;16.73;12.43;;;15.40;99.90;;;;;;5127542;27;21012;-68
2023/05/22 05:18:50;;;;;;;16.43;13.07;;;15.50;99.90;;;;;;5108749;28;20233;-68
2023/05/22 05:21:16;;;;;;;14.47;12.33;;;15.80;99.90;;;;;;5108644;28;20442;-68
2023/05/22 05:23:42;;;;;;;13.27;11.80;;;16.00;99.90;;;;;;5127312;27;20955;-68
2023/05/22 05:26:08;;;;;;;16.83;12.13;;;16.20;99.90;;;;;;5127404;27;20443;-69
2023/05/22 05:28:33;;;;;;;12.90;11.47;;;16.40;99.90;;;;;;5127395;28;20269;-68
2023/05/22 05:30:59;;;;;;;17.43;12.90;;;16.60;99.90;;;;;;5127362;28;20331;-68
2023/05/22 05:33:25;;;;;;;15.50;12.63;;;16.70;99.90;;;;;;5108883;27;20705;-68
2023/05/22 05:35:51;;;;;;;16.67;13.40;;;16.80;99.90;;;;;;5130664;27;20186;-68
2023/05/22 05:38:17;;;;;;;22.77;12.60;;;17.00;99.90;;;;;;5130747;27;20228;-68
2023/05/22 05:40:46;;;;;;;15.53;12.70;;;17.10;99.90;;;;;;5130917;27;20412;-69
2023/05/22 05:43:15;;;;;;;15.77;12.43;;;17.30;99.90;;;;;;5131241;27;20891;-69
2023/05/22 05:45:42;;;;;;;14.67;12.77;;;17.40;99.90;;;;;;5130678;27;20781;-69
2023/05/22 05:48:08;;;;;;;15.73;14.07;;;17.60;99.90;;;;;;5130952;27;20420;-69
2023/05/22 05:50:33;;;;;;;14.60;11.67;;;17.70;99.90;;;;;;5130698;27;20410;-69
2023/05/22 05:53:00;;;;;;;21.80;13.10;;;17.80;99.90;;;;;;5130856;27;20495;-69
2023/05/22 05:55:25;;;;;;;17.37;11.43;;;18.00;99.90;;;;;;5131025;27;20590;-69
2023/05/22 05:57:51;;;;;;;17.33;11.90;;;18.10;99.90;;;;;;5130455;27;20478;-69
2023/05/22 06:00:17;;;;;;;15.83;10.73;;;18.30;99.90;;;;;;5130445;27;20343;-69
2023/05/22 06:02:44;;;;;;;19.10;11.87;;;18.50;99.90;;;;;;5130412;27;20189;-69
2023/05/22 06:05:10;;;;;;;14.40;11.90;;;18.60;99.90;;;;;;5130206;27;20413;-69
2023/05/22 06:07:38;;;;;;;14.10;12.30;;;18.80;99.90;;;;;;5130070;27;20831;-69
2023/05/22 06:10:09;;;;;;;16.93;11.73;;;18.80;99.90;;;;;;5130080;27;20441;-69
2023/05/22 06:12:36;;;;;;;15.73;12.40;;;19.00;99.90;;;;;;5130271;27;20431;-69
2023/05/22 06:15:04;;;;;;;17.53;12.37;;;19.10;99.90;;;;;;5130100;27;20418;-68
2023/05/22 06:17:30;;;;;;;14.80;11.70;;;19.20;99.90;;;;;;5111402;27;20819;-69
2023/05/22 06:19:56;;;;;;;15.53;12.20;;;19.30;99.90;;;;;;5130151;27;20422;-68
2023/05/22 06:22:24;;;;;;;16.10;12.57;;;19.40;99.90;;;;;;5129986;27;20414;-69
2023/05/22 06:24:56;;;;;;;15.43;12.00;;;19.50;99.90;;;;;;5130131;27;20421;-69
2023/05/22 06:27:22;;;;;;;20.43;13.50;;;19.70;99.90;;;;;;5129706;27;20447;-68
2023/05/22 06:29:49;;;;;;;21.47;14.43;;;19.80;99.90;;;;;;5111262;27;20947;-69
2023/05/22 06:32:15;;;;;;;16.43;13.67;;;19.80;99.90;;;;;;5130033;27;20961;-69
2023/05/22 06:34:41;;;;;;;18.57;15.43;;;19.90;99.90;;;;;;5129588;27;20524;-69
2023/05/22 06:37:07;;;;;;;21.60;16.20;;;20.00;99.90;;;;;;5129396;27;20217;-69
2023/05/22 06:39:32;;;;;;;16.70;14.70;;;20.10;99.90;;;;;;5110863;27;20450;-69
2023/05/22 06:41:58;;;;;;;14.93;13.23;;;20.10;99.90;;;;;;5129467;27;20442;-69
2023/05/22 06:44:24;;;;;;;20.87;14.13;;;20.10;99.90;;;;;;5111022;27;20211;-69
2023/05/22 06:46:51;;;;;;;18.10;15.00;;;20.30;99.90;;;;;;5128575;27;20629;-69
2023/05/22 06:49:16;;;;;;;19.50;13.93;;;20.40;99.90;;;;;;5129329;27;20420;-69
2023/05/22 06:51:42;;;;;;;15.80;13.37;;;20.50;99.90;;;;;;5129361;27;20955;-69
2023/05/22 06:54:11;;;;;;;17.33;13.37;;;20.60;99.90;;;;;;5129468;27;20257;-69
2023/05/22 06:56:37;;;;;;;14.87;12.57;;;20.70;99.90;;;;;;5129257;27;20518;-69
2023/05/22 06:59:03;;;;;;;17.40;13.23;;;20.70;99.90;;;;;;5129513;27;20412;-69
2023/05/22 07:01:28;;;;;;;18.10;14.77;;;20.70;99.90;;;;;;5129457;27;20521;-69
2023/05/22 07:04:00;;;;;;;21.67;15.90;;;20.80;99.90;;;;;;5129146;27;20502;-72
2023/05/22 07:06:26;;;;;;;15.80;13.57;;;20.90;99.90;;;;;;5110390;27;20227;-68
2023/05/22 07:08:52;;;;;;;15.83;14.00;;;20.90;99.90;;;;;;5129261;27;20419;-69
2023/05/22 07:11:18;;;;;;;22.10;13.47;;;21.00;99.90;;;;;;5110545;27;21204;-70
2023/05/22 07:13:44;;;;;;;14.00;12.50;;;21.10;99.90;;;;;;5129514;27;20448;-73
2023/05/22 07:16:09;;;;;;;15.80;12.60;;;21.20;99.90;;;;;;5129345;27;20237;-70
2023/05/22 07:18:35;;;;;;;15.57;12.93;;;21.30;99.90;;;;;;5129026;27;20612;-74
2023/05/22 07:21:01;;;;;;;13.60;12.10;;;21.40;99.90;;;;;;5128734;27;20748;-73
2023/05/22 07:23:27;;;;;;;17.47;13.40;;;21.40;99.90;;;;;;5110257;27;20222;-74
2023/05/22 07:25:52;;;;;;;15.23;12.90;;;21.40;99.90;;;;;;5109781;27;20430;-73
2023/05/22 07:28:18;;;;;;;16.50;12.90;;;21.40;99.90;;;;;;5110109;27;20728;-74
2023/05/22 07:30:44;;;;;;;14.67;13.10;;;21.30;99.90;;;;;;5110538;27;20192;-74
2023/05/22 07:33:10;;;;;;;14.47;11.63;;;21.30;99.90;;;;;;5093234;27;20258;-72
2023/05/22 07:35:36;;;;;;;14.93;11.27;;;21.30;99.90;;;;;;5109837;27;20231;-73
2023/05/22 07:38:01;;;;;;;14.50;11.83;;;21.40;99.90;;;;;;5128448;27;21058;-73
2023/05/22 07:40:27;;;;;;;18.60;13.30;;;21.30;99.90;;;;;;5076289;27;20319;-73
2023/05/22 07:42:52;;;;;;;16.00;12.70;;;21.20;99.90;;;;;;5128882;27;20204;-73
2023/05/22 07:45:18;;;;;;;12.83;11.57;;;21.20;99.90;;;;;;5129973;27;20549;-73
2023/05/22 07:47:44;;;;;;;12.60;11.30;;;21.30;99.90;;;;;;5111144;27;20205;-73
2023/05/22 07:50:09;;;;;;;15.23;11.93;;;21.40;99.90;;;;;;5094005;27;20275;-73
2023/05/22 07:52:35;;;;;;;15.20;12.07;;;21.40;99.90;;;;;;5110316;27;20258;-73
2023/05/22 07:55:01;;;;;;;17.77;12.80;;;21.50;99.90;;;;;;5129063;27;20188;-73
2023/05/22 07:57:28;;;;;;;15.63;11.43;;;21.40;99.90;;;;;;5110191;27;20228;-74
2023/05/22 07:59:54;;;;;;;13.63;11.87;;;21.50;99.90;;;;;;5128804;27;20192;-73
2023/05/22 08:02:21;;;;;;;13.67;12.17;;;21.70;99.90;;;;;;5128888;27;20428;-73
2023/05/22 08:04:47;;;;;;;18.10;12.10;;;21.80;99.90;;;;;;5110224;27;20268;-73
2023/05/22 08:07:13;;;;;;;15.00;12.40;;;21.80;99.90;;;;;;5128530;27;20531;-73
2023/05/22 08:09:38;;;;;;;14.03;12.53;;;21.70;99.90;;;;;;5093050;28;20973;-73
2023/05/22 08:12:05;;;;;;;14.73;11.90;;;21.80;99.90;;;;;;5110437;28;20419;-74
2023/05/22 08:14:30;;;;;;;14.53;11.93;;;21.90;99.90;;;;;;5109185;27;20196;-73
2023/05/22 08:16:57;;;;;;;14.47;12.50;;;21.80;99.90;;;;;;5127699;27;20471;-72
2023/05/22 08:19:23;;;;;;;14.13;12.33;;;21.90;99.90;;;;;;5109177;28;20946;-72
2023/05/22 08:21:51;;;;;;;16.40;12.17;;;21.90;99.90;;;;;;5109660;28;20452;-72
2023/05/22 08:24:17;;;;;;;15.00;13.23;;;22.00;99.90;;;;;;5127716;28;20442;-73
2023/05/22 08:26:43;;;;;;;16.40;14.13;;;21.90;99.90;;;;;;5127917;27;20591;-73
2023/05/22 08:29:08;;;;;;;17.10;12.70;;;21.90;99.90;;;;;;5128427;28;20193;-73
2023/05/22 08:31:34;;;;;;;18.30;13.87;;;21.90;99.90;;;;;;5109686;28;20724;-73
2023/05/22 08:34:03;;;;;;;17.13;13.23;;;21.80;99.90;;;;;;5128273;27;20185;-73
2023/05/22 08:36:33;;;;;;;13.60;12.20;;;21.80;99.90;;;;;;5109576;28;20225;-73
2023/05/22 08:39:00;;;;;;;16.07;12.20;;;21.80;99.90;;;;;;5110444;28;20419;-72
2023/05/22 08:41:26;;;;;;;16.53;12.97;;;21.90;99.90;;;;;;5128560;28;20518;-73
2023/05/22 08:43:51;;;;;;;17.20;14.43;;;21.90;99.90;;;;;;5128764;28;20415;-73
2023/05/22 08:46:18;;;;;;;17.80;13.60;;;21.90;99.90;;;;;;5128662;27;20443;-73
2023/05/22 08:48:44;;;;;;;18.03;14.10;;;21.90;99.90;;;;;;5093219;28;20185;-73
2023/05/22 08:51:13;;;;;;;16.43;12.40;;;22.00;99.90;;;;;;5128533;27;20432;-72
2023/05/22 08:53:41;;;;;;;16.07;12.90;;;22.20;99.90;;;;;;5128435;27;20437;-73
2023/05/22 08:56:07;;;;;;;15.03;13.13;;;22.60;99.90;;;;;;5128319;27;20494;-72
2023/05/22 08:58:35;;;;;;;17.33;13.77;;;22.90;99.90;;;;;;5109792;28;20840;-72
2023/05/22 09:01:01;;;;;;;17.20;13.80;;;23.20;99.90;;;;;;5128236;28;20426;-73
2023/05/22 09:03:31;;;;;;;20.33;13.30;;;23.50;99.90;;;;;;5128432;27;20427;-73
2023/05/22 09:06:01;;;;;;;14.40;12.83;;;23.70;99.90;;;;;;5128288;27;20416;-72
2023/05/22 09:08:27;;;;;;;19.80;14.00;;;24.00;99.90;;;;;;5092879;27;20419;-73
2023/05/22 09:10:56;;;;;;;18.60;13.47;;;24.10;99.90;;;;;;5131751;27;20468;-73
2023/05/22 09:13:25;;;;;;;18.27;13.63;;;24.30;99.90;;;;;;5097563;27;20955;-73
2023/05/22 09:15:51;;;;;;;17.03;12.73;;;24.30;99.90;;;;;;5131752;27;20886;-73
2023/05/22 09:18:17;;;;;;;14.67;12.50;;;24.30;99.90;;;;;;5113481;27;20451;-72
2023/05/22 09:20:42;;;;;;;15.73;12.67;;;24.40;99.90;;;;;;5131936;27;20587;-69
2023/05/22 09:23:13;;;;;;;12.53;11.30;;;24.80;99.90;;;;;;5132117;27;20198;-73
2023/05/22 09:25:41;;;;;;;15.67;13.07;;;24.90;99.90;;;;;;5096444;27;20194;-72
2023/05/22 09:28:07;;;;;;;13.70;12.30;;;24.90;99.90;;;;;;5132168;27;20452;-72
2023/05/22 09:30:36;;;;;;;14.73;11.90;;;24.90;99.90;;;;;;5113579;27;20452;-72
2023/05/22 09:33:03;;;;;;;15.63;13.40;;;25.00;99.90;;;;;;5132057;27;20268;-73
2023/05/22 09:35:31;;;;;;;15.63;12.67;;;25.30;99.90;;;;;;5131680;27;20944;-72
2023/05/22 09:37:57;;;;;;;13.23;11.87;;;25.40;99.90;;;;;;5131239;27;20512;-74
2023/05/22 09:40:25;;;;;;;18.83;12.73;;;25.40;99.90;;;;;;5131584;27;20422;-72
2023/05/22 09:42:51;;;;;;;14.13;11.77;;;25.70;99.90;;;;;;5131809;27;20441;-73
2023/05/22 09:45:21;;;;;;;30.37;11.40;;;26.10;99.90;;;;;;5113188;27;20414;-73
2023/05/22 09:47:50;;;;;;;13.03;11.63;;;26.40;99.90;;;;;;5132530;27;20201;-73
2023/05/22 09:50:16;;;;;;;15.43;12.83;;;26.60;99.90;;;;;;5131480;27;20425;-72
2023/05/22 09:52:44;;;;;;;15.73;12.33;;;26.70;99.90;;;;;;5131647;27;20786;-73
2023/05/22 09:55:12;;;;;;;13.10;11.87;;;27.00;99.90;;;;;;5131148;27;20429;-75
2023/05/22 09:57:43;;;;;;;17.03;12.70;;;27.10;99.90;;;;;;5131065;27;20484;-72
2023/05/22 10:00:13;;;;;;;17.80;13.40;;;27.10;99.90;;;;;;5131221;27;20422;-73
2023/05/22 10:02:43;;;;;;;16.80;11.83;;;27.00;99.90;;;;;;5131233;27;20472;-73
2023/05/22 10:05:10;;;;;;;16.80;12.10;;;27.20;99.90;;;;;;5131159;27;20414;-73
2023/05/22 10:07:44;;;;;;;15.67;13.23;;;27.30;99.90;;;;;;5131244;27;20442;-70
2023/05/22 10:10:13;;;;;;;18.60;11.47;;;27.50;99.20;;;;;;5131121;27;20417;-73
2023/05/22 10:12:46;;;;;;;17.10;13.93;;;27.60;99.90;;;;;;5130579;27;20511;-74
2023/05/22 10:15:12;;;;;;;16.07;12.10;;;27.60;98.40;;;;;;5130624;27;20418;-74
2023/05/22 10:17:40;;;;;;;13.10;11.63;;;27.80;99.10;;;;;;5130545;27;20552;-74
2023/05/22 10:20:08;;;;;;;16.10;11.90;;;28.10;99.20;;;;;;5111532;27;20421;-73
2023/05/22 10:22:35;;;;;;;15.27;12.17;;;28.20;98.40;;;;;;5129611;27;20445;-72
2023/05/22 10:25:02;;;;;;;15.40;11.73;;;28.40;99.10;;;;;;5111667;27;20422;-74
2023/05/22 10:27:28;;;;;;;12.10;10.90;;;28.40;98.30;;;;;;5129891;27;20453;-74
2023/05/22 10:30:02;;;;;;;13.00;11.53;;;28.60;98.80;;;;;;5130150;27;20422;-73
2023/05/22 10:33:01;;;;;;;15.70;11.10;;;28.80;97.40;;;;;;5130150;27;20172;-73
2023/05/22 10:36:03;;;;;;;12.83;11.47;;;28.90;96.90;;;;;;5130370;27;20422;-73
2023/05/22 10:38:56;;;;;;;12.90;11.63;;;28.80;95.90;;;;;;5130399;27;20414;-73
2023/05/22 10:41:23;;;;;;;16.53;13.00;;;28.70;97.70;;;;;;5130430;27;20480;-74
2023/05/22 10:43:49;;;;;;;13.00;11.30;;;28.70;96.60;;;;;;5130660;27;20407;-73
2023/05/22 10:46:16;;;;;;;13.17;10.60;;;28.90;97.10;;;;;;5111672;27;20461;-72
2023/05/22 10:48:50;;;;;;;13.00;11.60;;;29.20;96.70;;;;;;5094935;27;20419;-74
2023/05/22 10:51:21;;;;;;;13.83;10.93;;;29.40;96.10;;;;;;5130564;27;20463;-73
2023/05/22 10:53:52;;;;;;;13.23;11.47;;;29.50;96.40;;;;;;5130464;27;20691;-73
2023/05/22 10:56:18;;;;;;;16.40;10.37;;;29.40;95.30;;;;;;5129984;27;20458;-73
2023/05/22 10:58:55;;;;;;;11.70;10.60;;;29.50;96.00;;;;;;5130218;27;20402;-73
2023/05/22 11:01:23;;;;;;;12.10;10.97;;;29.60;95.00;;;;;;5129870;27;20408;-72
2023/05/22 11:03:56;;;;;;;13.47;10.63;;;29.70;95.40;;;;;;5129679;27;20419;-73
2023/05/22 11:06:45;;;;;;;13.43;10.70;;;29.90;93.90;;;;;;5129810;27;20437;-73
2023/05/22 11:09:29;;;;;;;12.63;11.10;;;30.10;95.40;;;;;;5112077;27;20414;-73
2023/05/22 11:12:29;;;;;;;14.37;12.00;;;29.80;94.00;;;;;;5129962;27;20922;-72
2023/05/22 11:14:55;;;;;;;11.50;10.40;;;29.70;93.60;;;;;;5074457;27;20429;-73
2023/05/22 11:17:29;;;;;;;11.97;10.73;;;29.70;94.20;;;;;;5129608;27;20462;-74
2023/05/22 11:20:24;;;;;;;11.83;10.00;;;29.60;93.90;;;;;;5110385;27;20193;-73
2023/05/22 11:23:02;;;;;;;12.73;11.43;;;29.90;93.60;;;;;;5110108;27;20950;-71
2023/05/22 11:25:28;;;;;;;13.03;11.70;;;29.70;93.90;;;;;;5077680;27;20768;-74
2023/05/22 11:27:55;;;;;;;12.37;11.10;;;30.00;93.50;;;;;;5132233;27;20882;-75
2023/05/22 11:30:25;;;;;;;11.60;10.50;;;30.00;93.70;;;;;;5128900;27;20492;-75
2023/05/22 11:32:51;;;;;;;11.40;10.30;;;30.30;93.50;;;;;;5128576;27;20930;-75
2023/05/22 11:35:18;;;;;;;15.90;10.80;;;30.10;92.10;;;;;;5128721;27;20431;-75
2023/05/22 11:37:44;;;;;;;11.60;10.40;;;30.20;93.20;;;;;;5128530;27;20307;-74
2023/05/22 11:40:17;;;;;;;14.57;10.90;;;30.40;91.70;;;;;;5128480;27;20836;-74
2023/05/22 11:42:43;;;;;;;12.63;11.23;;;30.30;91.80;;;;;;5128517;27;20437;-73
2023/05/22 11:45:09;;;;;;;11.50;10.43;;;30.40;92.00;;;;;;5109884;27;20426;-74
2023/05/22 11:47:36;;;;;;;12.47;9.60;;;30.10;92.00;;;;;;5128302;27;20434;-74
2023/05/22 11:50:02;;;;;;;10.57;9.57;;;30.00;92.20;;;;;;5128337;27;20835;-74
2023/05/22 11:52:36;;;;;;;12.10;10.30;;;30.20;91.40;;;;;;5128283;27;20419;-75
2023/05/22 11:55:04;;;;;;;12.30;10.53;;;30.30;91.40;;;;;;5128133;27;20509;-75
2023/05/22 11:57:30;;;;;;;10.87;9.77;;;30.30;90.50;;;;;;5128244;27;20466;-74
2023/05/22 11:59:57;;;;;;;15.30;9.63;;;30.60;90.90;;;;;;5109955;27;20498;-74
2023/05/22 12:02:22;;;;;;;14.53;10.10;;;30.60;90.40;;;;;;5109976;27;21081;-73
2023/05/22 12:04:53;;;;;;;12.80;9.30;;;30.70;89.80;;;;;;5128473;27;20415;-75
2023/05/22 12:07:19;;;;;;;12.60;9.93;;;30.70;90.10;;;;;;5110030;27;20201;-74
2023/05/22 12:09:44;;;;;;;12.27;10.97;;;30.50;88.10;;;;;;5128610;27;20471;-74
2023/05/22 12:12:10;;;;;;;14.73;10.73;;;30.40;88.30;;;;;;5128816;27;20615;-75
2023/05/22 12:14:36;;;;;;;11.33;10.30;;;30.30;90.90;;;;;;5109975;27;20177;-75
2023/05/22 12:17:05;;;;;;;14.43;11.00;;;30.40;90.50;;;;;;5128623;27;20200;-74
2023/05/22 12:19:31;;;;;;;11.43;10.23;;;30.50;90.20;;;;;;5128603;27;20418;-74
2023/05/22 12:21:58;;;;;;;14.67;10.43;;;30.80;90.10;;;;;;5110006;28;20422;-74
2023/05/22 12:24:24;;;;;;;11.97;10.60;;;31.00;89.00;;;;;;5128388;27;20407;-74
2023/05/22 12:26:53;;;;;;;12.50;10.13;;;31.00;87.40;;;;;;5128527;27;20434;-74
2023/05/22 12:29:24;;;;;;;10.13;9.10;;;30.80;86.10;;;;;;5128004;28;20458;-73
2023/05/22 12:31:50;;;;;;;11.10;10.00;;;31.00;87.90;;;;;;5128507;27;20537;-76